Time;durP1;ratioP1;P1;durP2;ratioP2;P2;SDS_P1;SDS_P2;PMS_P1;PMS_P2;Temp;Humidity;BMP_temperature;BMP_pressure;BME280_temperature;BME280_humidity;BME280_pressure;Samples;Min_cycle;Max_cycle;Signal;HPM_P1;HPM_P2
2021/06/05 00:01:38;;;;;;;7.72;6.75;;;384.70;1843.20;;;;;;5093631;28;20447;-71
2021/06/05 00:04:05;;;;;;;10.68;5.60;;;384.90;1817.60;;;;;;5094838;28;20048;-69
2021/06/05 00:06:32;;;;;;;7.70;7.00;;;;;;;;;;5094702;28;20040;-66
2021/06/05 00:08:58;;;;;;;10.27;6.88;;;;;;;;;;5094916;28;20066;-66
2021/06/05 00:11:26;;;;;;;7.18;6.00;;;;;;;;;;5094716;28;20058;-67
2021/06/05 00:13:55;;;;;;;8.35;6.20;;;;;;;;;;5094628;28;20024;-74
2021/06/05 00:16:22;;;;;;;10.68;6.63;;;;;;;;;;5094365;28;20031;-72
2021/06/05 00:18:49;;;;;;;13.23;6.55;;;;;;;;;;5094577;28;20038;-67
2021/06/05 00:21:16;;;;;;;8.27;6.22;;;;;;;;;;5094475;28;20490;-70
2021/06/05 00:23:42;;;;;;;8.70;6.97;;;;;;;;;;5087714;28;20107;-67
2021/06/05 00:26:08;;;;;;;7.68;6.00;;;;;;;;;;5087164;28;20036;-71
2021/06/05 00:28:34;;;;;;;7.53;6.07;;;;;;;;;;5094446;28;20027;-71
2021/06/05 00:31:00;;;;;;;6.78;5.88;;;;;;;;;;5094851;28;20028;-71
2021/06/05 00:33:27;;;;;;;7.20;5.90;;;;;;;;;;5094386;28;20016;-73
2021/06/05 00:35:53;;;;;;;7.57;6.05;;;;;;;;;;5085196;28;20024;-66
2021/06/05 00:38:20;;;;;;;6.13;5.53;;;;;;;;;;5089239;28;20024;-73
2021/06/05 00:40:48;;;;;;;7.43;6.38;;;;;;;;;;5094278;28;20104;-72
2021/06/05 00:43:17;;;;;;;6.93;5.85;;;;;;;;;;5094035;28;20048;-73
2021/06/05 00:45:44;;;;;;;11.55;6.30;;;;;;;;;;5093994;28;20036;-72
2021/06/05 00:48:10;;;;;;;8.05;5.97;;;;;;;;;;5094022;28;20024;-73
2021/06/05 00:50:37;;;;;;;8.93;5.72;;;;;;;;;;5093879;28;20020;-71
2021/06/05 00:53:03;;;;;;;9.15;6.45;;;;;;;;;;5094031;28;20024;-69
2021/06/05 00:55:31;;;;;;;7.72;6.35;;;;;;;;;;5093866;28;20028;-72
2021/06/05 00:57:57;;;;;;;7.65;6.30;;;;;;;;;;5093925;28;20024;-69
2021/06/05 01:00:28;;;;;;;10.77;6.05;;;;;;;;;;5093586;28;20059;-67
2021/06/05 01:02:56;;;;;;;7.10;6.40;;;;;;;;;;5093701;28;20016;-67
2021/06/05 01:05:22;;;;;;;8.05;5.90;;;;;;;;;;5093634;28;20482;-67
2021/06/05 01:07:49;;;;;;;8.00;6.10;;;;;;;;;;5093777;28;20374;-67
2021/06/05 01:10:27;;;;;;;9.43;5.90;;;;;;;;;;5093928;28;20028;-67
2021/06/05 01:12:56;;;;;;;7.95;5.95;;;;;;;;;;5092081;28;20027;-70
2021/06/05 01:15:26;;;;;;;7.22;6.45;;;;;;;;;;5093764;28;20355;-67
2021/06/05 01:18:10;;;;;;;11.27;6.30;;;;;;;;;;5093301;28;20023;-67
2021/06/05 01:20:55;;;;;;;7.38;6.53;;;;;;;;;;5093764;28;20039;-72
2021/06/05 01:23:47;;;;;;;6.38;5.78;;;;;;;;;;5093316;28;20036;-72
2021/06/05 01:26:20;;;;;;;10.40;6.78;;;;;;;;;;5062320;28;20039;-67
2021/06/05 01:28:55;;;;;;;7.50;6.43;;;;;;;;;;5093344;28;20027;-70
2021/06/05 01:31:24;;;;;;;6.57;5.88;;;;;;;;;;5093427;28;20036;-68
2021/06/05 01:33:50;;;;;;;7.20;6.50;;;;;;;;;;5093224;28;20103;-72
2021/06/05 01:36:18;;;;;;;7.65;6.10;;;;;;;;;;5092994;28;20024;-67
2021/06/05 01:38:46;;;;;;;12.02;7.15;;;;;;;;;;5092976;28;20073;-68
2021/06/05 01:41:14;;;;;;;7.22;6.53;;;;;;;;;;5093078;28;20166;-68
2021/06/05 01:43:40;;;;;;;8.07;6.30;;;;;;;;;;5092922;28;20052;-68
2021/06/05 01:46:07;;;;;;;9.00;5.70;;;;;;;;;;5092914;28;20032;-70
2021/06/05 01:48:33;;;;;;;11.18;6.20;;;;;;;;;;5092813;28;20143;-69
2021/06/05 01:51:08;;;;;;;10.52;5.90;;;;;;;;;;5092866;28;20386;-68
2021/06/05 01:53:37;;;;;;;7.45;6.22;;;;;;;;;;5092735;28;20012;-69
2021/06/05 01:56:14;;;;;;;9.45;6.20;;;;;;;;;;5092998;28;20446;-70
2021/06/05 01:58:42;;;;;;;7.10;6.28;;;;;;;;;;5092722;28;20024;-67
2021/06/05 02:01:08;;;;;;;7.60;6.78;;;;;;;;;;5092900;28;20023;-70
2021/06/05 02:03:34;;;;;;;9.13;6.53;;;;;;;;;;5092462;28;20050;-67
2021/06/05 02:06:00;;;;;;;6.93;6.22;;;;;;;;;;5092523;28;20115;-68
2021/06/05 02:08:27;;;;;;;7.55;5.97;;;;;;;;;;5092743;28;20536;-70
2021/06/05 02:10:56;;;;;;;8.48;6.88;;;;;;;;;;5092521;28;20024;-69
2021/06/05 02:13:26;;;;;;;7.43;6.60;;;;;;;;;;5092625;28;20170;-68
2021/06/05 02:15:53;;;;;;;8.57;6.07;;;;;;;;;;5092719;28;20024;-65
2021/06/05 02:18:26;;;;;;;9.63;6.93;;;;;;;;;;5092255;28;20044;-70
2021/06/05 02:21:01;;;;;;;8.35;6.60;;;;;;;;;;5092543;28;20504;-71
2021/06/05 02:23:40;;;;;;;7.32;6.50;;;;;;;;;;5092523;28;20016;-73
2021/06/05 02:26:06;;;;;;;8.95;6.57;;;;;;;;;;5096442;28;20165;-73
2021/06/05 02:28:34;;;;;;;7.25;6.47;;;;;;;;;;5096672;28;20352;-68
2021/06/05 02:31:00;;;;;;;9.27;6.50;;;384.30;1766.40;;;;;;5096876;28;20473;-68
2021/06/05 02:33:26;;;;;;;9.90;6.65;;;384.20;1792.00;;;;;;5096694;28;20020;-67
2021/06/05 02:35:54;;;;;;;6.47;5.88;;;384.30;1792.00;;;;;;5087617;28;20379;-68
2021/06/05 02:38:21;;;;;;;7.38;6.40;;;384.30;1792.00;;;;;;5091706;28;20497;-73
2021/06/05 02:40:48;;;;;;;7.38;6.28;;;384.20;1792.00;;;;;;5096562;28;20050;-73
2021/06/05 02:43:21;;;;;;;7.35;5.80;;;384.40;1766.40;;;;;;5096317;28;20048;-73
2021/06/05 02:46:30;;;;;;;9.38;6.18;;;384.40;1766.40;;;;;;5096400;28;20072;-73
2021/06/05 02:49:03;;;;;;;6.50;5.72;;;384.00;1817.60;;;;;;5014093;28;20076;-73
2021/06/05 02:51:34;;;;;;;8.02;6.43;;;384.10;1817.60;;;;;;5014228;28;20026;-68
2021/06/05 02:54:00;;;;;;;6.32;5.72;;;384.10;1817.60;;;;;;5013928;28;20033;-69
2021/06/05 02:56:26;;;;;;;8.23;6.20;;;384.40;1792.00;;;;;;5014120;28;20045;-69
2021/06/05 02:58:52;;;;;;;7.97;5.93;;;384.10;1817.60;;;;;;5014057;28;20108;-67
2021/06/05 03:01:20;;;;;;;8.25;6.70;;;384.30;1792.00;;;;;;5014041;28;20038;-67
2021/06/05 03:03:46;;;;;;;8.15;6.68;;;384.20;1817.60;;;;;;5013591;28;20085;-67
2021/06/05 03:06:12;;;;;;;7.05;5.93;;;384.20;1817.60;;;;;;5013780;28;20092;-67
2021/06/05 03:08:44;;;;;;;8.00;6.00;;;384.20;1792.00;;;;;;5013723;28;20026;-67
2021/06/05 03:11:14;;;;;;;8.73;6.57;;;384.20;1817.60;;;;;;5013671;28;20515;-72
2021/06/05 03:13:40;;;;;;;7.90;6.18;;;384.30;1792.00;;;;;;4997077;28;20038;-67
2021/06/05 03:16:08;;;;;;;7.45;6.47;;;384.40;1766.40;;;;;;5013745;28;20030;-68
2021/06/05 03:18:35;;;;;;;8.40;6.53;;;384.30;1766.40;;;;;;5020210;28;20397;-70
2021/06/05 03:21:01;;;;;;;8.90;5.97;;;384.30;1766.40;;;;;;5096208;28;20028;-67
2021/06/05 03:23:30;;;;;;;7.13;6.43;;;384.20;1792.00;;;;;;5095523;28;20032;-66
2021/06/05 03:25:57;;;;;;;6.97;6.28;;;384.20;1792.00;;;;;;5095575;28;20032;-69
2021/06/05 03:28:25;;;;;;;13.40;7.15;;;384.30;1792.00;;;;;;5095579;28;20016;-66
2021/06/05 03:30:51;;;;;;;7.90;7.07;;;384.10;1792.00;;;;;;5095628;28;20103;-68
2021/06/05 03:33:22;;;;;;;8.98;6.07;;;384.00;1817.60;;;;;;5095300;28;20111;-66
2021/06/05 03:35:48;;;;;;;7.75;6.18;;;384.10;1792.00;;;;;;5086863;28;20032;-72
2021/06/05 03:38:14;;;;;;;7.05;6.10;;;384.30;1792.00;;;;;;5089722;28;20096;-67
2021/06/05 03:40:40;;;;;;;7.15;6.20;;;384.40;1766.40;;;;;;5094060;28;20059;-67
2021/06/05 03:43:07;;;;;;;9.32;5.88;;;;;;;;;;5093977;28;20048;-68
2021/06/05 03:45:33;;;;;;;28.38;10.18;;;;;;;;;;5095140;28;20437;-70
2021/06/05 03:48:00;;;;;;;11.07;7.05;;;;;;;;;;5095214;28;20016;-69
2021/06/05 03:50:31;;;;;;;10.40;6.53;;;;;;;;;;5095049;28;20082;-67
2021/06/05 03:52:57;;;;;;;8.95;7.07;;;;;;;;;;5095372;28;20016;-67
2021/06/05 03:55:23;;;;;;;9.57;7.32;;;;;;;;;;5095294;28;20476;-67
2021/06/05 03:57:49;;;;;;;8.60;6.22;;;;;;;;;;5095349;28;20038;-67
2021/06/05 04:00:17;;;;;;;8.90;6.70;;;;;;;;;;5095422;28;20425;-70
2021/06/05 04:02:43;;;;;;;8.27;6.25;;;;;;;;;;5094995;28;20019;-68
2021/06/05 04:05:10;;;;;;;8.32;6.80;;;;;;;;;;5095023;28;20101;-67
2021/06/05 04:07:36;;;;;;;6.93;6.22;;;;;;;;;;5093477;28;20427;-70
2021/06/05 04:10:04;;;;;;;9.20;7.07;;;384.40;1766.40;;;;;;5094879;28;20023;-70
2021/06/05 04:12:30;;;;;;;9.20;7.47;;;384.30;1766.40;;;;;;5095026;28;20462;-70
2021/06/05 04:14:55;;;;;;;13.60;8.38;;;384.40;1766.40;;;;;;5094648;28;20073;-69
2021/06/05 04:17:21;;;;;;;7.88;7.05;;;384.30;1766.40;;;;;;5095114;28;20053;-69
2021/06/05 04:19:47;;;;;;;10.35;6.80;;;384.10;1792.00;;;;;;5094467;28;20603;-69
2021/06/05 04:22:13;;;;;;;7.57;6.82;;;384.30;1792.00;;;;;;5092936;28;20122;-70
2021/06/05 04:24:39;;;;;;;7.60;6.05;;;384.10;1843.20;;;;;;5094425;28;20032;-70
2021/06/05 04:27:06;;;;;;;9.18;7.07;;;384.20;1843.20;;;;;;5094542;28;20031;-70
2021/06/05 04:29:33;;;;;;;8.73;7.28;;;384.40;1817.60;;;;;;5094400;28;20024;-66
2021/06/05 04:31:59;;;;;;;14.82;6.97;;;384.50;1792.00;;;;;;5094261;28;20024;-66
2021/06/05 04:34:25;;;;;;;10.50;7.38;;;384.60;1792.00;;;;;;5094329;28;20012;-71
2021/06/05 04:36:52;;;;;;;9.30;6.97;;;384.30;1843.20;;;;;;5094022;28;20020;-66
2021/06/05 04:39:18;;;;;;;9.77;7.35;;;384.40;1817.60;;;;;;5094273;28;20023;-73
2021/06/05 04:41:44;;;;;;;13.65;7.43;;;384.50;1817.60;;;;;;5093881;28;20093;-73
2021/06/05 04:44:10;;;;;;;10.43;8.40;;;384.50;1817.60;;;;;;5094171;28;20556;-71
2021/06/05 04:46:37;;;;;;;12.98;10.98;;;384.40;1843.20;;;;;;5094225;28;20111;-73
2021/06/05 04:49:03;;;;;;;17.60;11.38;;;384.60;1817.60;;;;;;5093628;28;20078;-73
2021/06/05 04:51:30;;;;;;;27.55;18.63;;;384.70;1817.60;;;;;;5094215;28;20035;-72
2021/06/05 04:53:56;;;;;;;15.52;11.13;;;384.70;1792.00;;;;;;5093923;28;20012;-66
2021/06/05 04:56:24;;;;;;;17.55;8.98;;;;;;;;;;5093862;28;20028;-72
2021/06/05 04:58:50;;;;;;;11.30;8.80;;;;;;;;;;5093844;28;20098;-73
2021/06/05 05:01:16;;;;;;;10.93;8.50;;;;;;;;;;5094252;28;20027;-73
2021/06/05 05:03:42;;;;;;;11.13;8.32;;;;;;;;;;5093530;28;20477;-72
2021/06/05 05:06:10;;;;;;;8.57;7.40;;;;;;;;;;5093488;28;20367;-74
2021/06/05 05:08:36;;;;;;;12.10;7.80;;;;;;;;;;5093666;28;20069;-73
2021/06/05 05:11:02;;;;;;;11.43;7.45;;;;;;;;;;5093463;28;20470;-69
2021/06/05 05:13:30;;;;;;;10.95;8.13;;;;;;;;;;5094003;28;20021;-69
2021/06/05 05:15:57;;;;;;;13.75;11.00;;;;;;;;;;5093498;28;20108;-69
2021/06/05 05:18:23;;;;;;;8.93;7.72;;;;;;;;;;5093330;28;20077;-70
2021/06/05 05:20:50;;;;;;;9.07;6.68;;;;;;;;;;5093324;28;20020;-70
2021/06/05 05:23:16;;;;;;;13.93;6.43;;;;;;;;;;5093347;28;20028;-73
2021/06/05 05:25:43;;;;;;;11.48;6.65;;;;;;;;;;5093382;28;20044;-72
2021/06/05 05:28:11;;;;;;;10.52;7.05;;;;;;;;;;5093231;28;20505;-72
2021/06/05 05:30:39;;;;;;;7.90;6.18;;;;;;;;;;5093285;28;20028;-72
2021/06/05 05:33:06;;;;;;;10.98;6.80;;;;;;;;;;5093661;28;20028;-68
2021/06/05 05:35:33;;;;;;;9.85;7.28;;;;;;;;;;5093013;28;20482;-70
2021/06/05 05:38:00;;;;;;;10.90;7.78;;;;;;;;;;5093207;28;20069;-68
2021/06/05 05:40:27;;;;;;;13.52;7.70;;;;;;;;;;5092966;28;20016;-73
2021/06/05 05:42:53;;;;;;;11.75;7.55;;;;;;;;;;5093020;28;20044;-76
2021/06/05 05:45:19;;;;;;;15.50;8.32;;;;;;;;;;5092794;28;20036;-74
2021/06/05 05:47:45;;;;;;;15.35;7.75;;;;;;;;;;5093003;28;20516;-67
2021/06/05 05:50:13;;;;;;;9.73;7.35;;;;;;;;;;5092778;28;20146;-68
2021/06/05 05:52:39;;;;;;;27.50;9.00;;;;;;;;;;5092845;28;20478;-71
2021/06/05 05:55:06;;;;;;;19.80;8.55;;;;;;;;;;5092973;28;20024;-67
2021/06/05 05:57:33;;;;;;;10.93;7.43;;;;;;;;;;5092647;28;20020;-68
2021/06/05 05:59:59;;;;;;;13.23;8.13;;;;;;;;;;5090806;28;20024;-67
2021/06/05 06:02:25;;;;;;;14.13;7.78;;;;;;;;;;5069357;28;20082;-69
2021/06/05 06:04:51;;;;;;;24.15;8.43;;;;;;;;;;5053478;28;20037;-71
2021/06/05 06:07:17;;;;;;;15.95;8.40;;;;;;;;;;5075681;28;20025;-67
2021/06/05 06:09:43;;;;;;;16.00;8.93;;;;;;;;;;5092585;28;20016;-69
2021/06/05 06:12:09;;;;;;;16.15;9.02;;;;;;;;;;5092797;28;20031;-68
2021/06/05 06:14:35;;;;;;;13.05;7.65;;;;;;;;;;5092582;28;20032;-70
2021/06/05 06:17:02;;;;;;;19.40;9.98;;;;;;;;;;5071130;28;20032;-68
2021/06/05 06:19:28;;;;;;;18.52;11.63;;;;;;;;;;5054289;28;20018;-66
2021/06/05 06:21:54;;;;;;;21.50;15.23;;;512.70;1459.20;;;;;;5056073;28;20043;-69
2021/06/05 06:24:20;;;;;;;29.98;19.20;;;512.50;1459.20;;;;;;5054087;28;20869;-67
2021/06/05 06:26:46;;;;;;;23.42;14.75;;;512.60;1459.20;;;;;;5056562;28;20060;-68
2021/06/05 06:29:16;;;;;;;20.60;14.07;;;512.70;1459.20;;;;;;5062253;28;20028;-67
2021/06/05 06:31:48;;;;;;;52.50;36.70;;;512.80;1433.60;;;;;;5071365;28;20021;-66
2021/06/05 06:34:15;;;;;;;18.80;11.73;;;;;;;;;;5072174;28;20106;-68
2021/06/05 06:36:45;;;;;;;17.67;9.38;;;;;;;;;;5060022;28;20442;-70
2021/06/05 06:39:12;;;;;;;16.83;9.77;;;;;;;;;;5072145;28;20058;-67
2021/06/05 06:41:38;;;;;;;18.80;13.00;;;;;;;;;;5072329;28;20043;-71
2021/06/05 06:44:05;;;;;;;27.60;16.30;;;;;;;;;;5073908;28;20028;-69
2021/06/05 06:46:35;;;;;;;17.88;11.25;;;;;;;;;;5071969;28;20047;-69
2021/06/05 06:49:02;;;;;;;27.25;16.83;;;;;;;;;;5071715;28;20403;-69
2021/06/05 06:51:29;;;;;;;41.35;20.75;;;;;;;;;;5064508;28;20104;-68
2021/06/05 06:53:55;;;;;;;21.20;12.48;;;;;;;;;;5061416;28;20021;-74
2021/06/05 06:56:21;;;;;;;27.08;16.50;;;;;;;;;;5071852;28;20084;-72
2021/06/05 06:58:48;;;;;;;24.52;14.18;;;;;;;;;;5071993;28;20020;-69
2021/06/05 07:01:15;;;;;;;37.85;27.02;;;;;;;;;;5072075;28;20490;-68
2021/06/05 07:03:41;;;;;;;21.27;12.82;;;;;;;;;;5054144;28;20096;-70
2021/06/05 07:06:10;;;;;;;18.25;13.25;;;;;;;;;;5056969;28;20057;-69
2021/06/05 07:08:38;;;;;;;33.85;21.70;;;;;;;;;;5050920;28;20433;-70
2021/06/05 07:11:08;;;;;;;26.13;12.32;;;;;;;;;;5068931;28;20364;-67
2021/06/05 07:13:35;;;;;;;45.78;26.00;;;;;;;;;;5071441;28;20028;-68
2021/06/05 07:16:01;;;;;;;21.17;11.85;;;;;;;;;;5060732;28;20033;-68
2021/06/05 07:18:28;;;;;;;36.60;17.45;;;;;;;;;;5073089;28;20028;-71
2021/06/05 07:20:54;;;;;;;52.75;33.20;;;;;;;;;;5075341;28;20029;-73
2021/06/05 07:23:23;;;;;;;29.73;16.90;;;563.60;1305.60;;;;;;5075163;28;20043;-71
2021/06/05 07:25:50;;;;;;;32.13;15.88;;;563.70;1305.60;;;;;;5075214;28;20394;-72
2021/06/05 07:28:20;;;;;;;20.10;11.15;;;563.70;1331.20;;;;;;5075180;28;20486;-70
2021/06/05 07:30:46;;;;;;;17.88;8.55;;;563.90;1331.20;;;;;;5075290;28;20020;-72
2021/06/05 07:33:13;;;;;;;26.27;13.77;;;;;;;;;;5074844;28;20020;-72
2021/06/05 07:35:39;;;;;;;52.47;35.03;;;;;;;;;;5077989;28;20028;-72
2021/06/05 07:38:06;;;;;;;25.85;10.60;;;;;;;;;;5075093;28;20485;-71
2021/06/05 07:40:32;;;;;;;19.35;10.60;;;;;;;;;;5074956;28;20024;-69
2021/06/05 07:42:58;;;;;;;52.33;34.72;;;589.30;1203.20;;;;;;5074919;28;20040;-71
2021/06/05 07:45:24;;;;;;;28.20;13.02;;;589.10;1228.80;;;;;;5074676;28;20098;-71
2021/06/05 07:47:51;;;;;;;14.48;10.35;;;;;;;;;;5074808;28;20622;-67
2021/06/05 07:50:22;;;;;;;17.20;7.53;;;589.30;1203.20;;;;;;5074726;28;20029;-66
2021/06/05 07:52:47;;;;;;;24.55;16.40;;;589.40;1177.60;;;;;;5073478;28;20025;-67
2021/06/05 07:55:13;;;;;;;26.80;15.80;;;589.40;1177.60;;;;;;5074639;28;20112;-67
2021/06/05 07:57:39;;;;;;;26.35;17.42;;;589.50;1203.20;;;;;;5074686;28;20021;-69
2021/06/05 08:00:12;;;;;;;20.30;12.27;;;589.60;1177.60;;;;;;5074917;28;20021;-68
2021/06/05 08:02:38;;;;;;;20.25;15.75;;;589.70;1177.60;;;;;;5072881;28;20017;-73
2021/06/05 08:05:05;;;;;;;20.67;15.73;;;589.70;1177.60;;;;;;5081764;28;20028;-69
2021/06/05 08:07:31;;;;;;;14.52;6.13;;;589.70;1152.00;;;;;;5094757;28;20076;-68
2021/06/05 08:09:57;;;;;;;15.88;10.30;;;;;;;;;;5094813;28;20412;-69
2021/06/05 08:12:23;;;;;;;21.98;14.80;;;614.80;1024.00;;;;;;5094662;28;20028;-67
2021/06/05 08:14:48;;;;;;;19.00;12.80;;;614.70;1100.80;;;;;;5094716;28;20043;-68
2021/06/05 08:17:14;;;;;;;15.27;10.88;;;614.70;1100.80;;;;;;5094666;28;20028;-68
2021/06/05 08:19:41;;;;;;;11.43;6.32;;;;;;;;;;5094650;28;20016;-69
2021/06/05 08:22:08;;;;;;;9.35;5.65;;;;;;;;;;5092274;28;20040;-71
2021/06/05 08:24:34;;;;;;;13.48;7.15;;;;;;;;;;5093258;28;20020;-72
2021/06/05 08:27:01;;;;;;;12.75;8.02;;;;;;;;;;5094499;28;20073;-71
2021/06/05 08:29:27;;;;;;;12.57;8.15;;;;;;;;;;5082279;28;20023;-72
2021/06/05 08:31:53;;;;;;;10.98;4.97;;;;;;;;;;5092352;28;20027;-73
2021/06/05 08:34:20;;;;;;;11.38;7.55;;;;;;;;;;5094711;28;20097;-73
2021/06/05 08:36:47;;;;;;;10.90;5.97;;;;;;;;;;5093915;28;20046;-72
2021/06/05 08:39:14;;;;;;;14.48;11.15;;;;;;;;;;5094216;28;20028;-72
2021/06/05 08:41:46;;;;;;;12.80;9.30;;;;;;;;;;5093789;28;20482;-69
2021/06/05 08:44:12;;;;;;;16.27;10.23;;;;;;;;;;5094048;28;20085;-69
2021/06/05 08:46:49;;;;;;;11.77;5.68;;;;;;;;;;5093853;28;20028;-73
2021/06/05 08:49:20;;;;;;;11.93;8.35;;;;;;;;;;5094045;28;20393;-73
2021/06/05 08:51:58;;;;;;;7.22;5.95;;;;;;;;;;5093868;28;20027;-74
2021/06/05 08:54:34;;;;;;;9.82;6.03;;;;;;;;;;5093888;28;20027;-74
2021/06/05 08:57:04;;;;;;;10.35;7.78;;;;;;;;;;5093823;28;20099;-70
2021/06/05 08:59:30;;;;;;;9.13;5.93;;;;;;;;;;5093765;28;20531;-73
2021/06/05 09:01:56;;;;;;;6.05;5.25;;;640.30;998.40;;;;;;5093745;28;20031;-71
2021/06/05 09:04:23;;;;;;;8.75;6.45;;;640.40;998.40;;;;;;5093419;28;20023;-71
2021/06/05 09:07:01;;;;;;;8.73;6.57;;;640.40;1024.00;;;;;;5093717;28;20099;-73
2021/06/05 09:09:32;;;;;;;16.45;7.55;;;;;;;;;;5093531;28;20036;-68
2021/06/05 09:12:00;;;;;;;12.32;5.70;;;640.60;1024.00;;;;;;5093613;28;20020;-72
2021/06/05 09:14:26;;;;;;;8.80;7.20;;;;;;;;;;5093573;28;20133;-73
2021/06/05 09:16:53;;;;;;;10.93;5.60;;;;;;;;;;5093580;28;20095;-73
2021/06/05 09:19:28;;;;;;;7.68;6.63;;;;;;;;;;5092282;28;20080;-71
2021/06/05 09:22:13;;;;;;;24.60;8.05;;;;;;;;;;5093322;28;20070;-70
2021/06/05 09:24:44;;;;;;;9.07;4.80;;;;;;;;;;5091821;28;20051;-74
2021/06/05 09:27:18;;;;;;;9.20;5.72;;;;;;;;;;5093306;28;20020;-70
2021/06/05 09:29:44;;;;;;;12.32;6.10;;;;;;;;;;5093235;28;20031;-72
2021/06/05 09:32:12;;;;;;;9.82;6.13;;;;;;;;;;5093217;28;20051;-73
2021/06/05 09:34:43;;;;;;;8.80;5.13;;;;;;;;;;5092972;28;20026;-72
2021/06/05 09:37:29;;;;;;;4.47;3.22;;;;;;;;;;5092854;28;20043;-70
2021/06/05 09:40:04;;;;;;;9.45;6.25;;;;;;;;;;5010660;28;20120;-73
2021/06/05 09:42:42;;;;;;;7.88;5.47;;;;;;;;;;4998698;28;20046;-68
2021/06/05 09:45:27;;;;;;;9.65;5.65;;;;;;;;;;5010700;28;20110;-68
2021/06/05 09:48:12;;;;;;;12.15;5.40;;;;;;;;;;5011046;28;20033;-72
2021/06/05 09:50:42;;;;;;;6.35;4.60;;;;;;;;;;5010657;28;20030;-68
2021/06/05 09:53:12;;;;;;;9.38;5.60;;;;;;;;;;5010996;28;20030;-68
2021/06/05 09:55:39;;;;;;;8.00;5.30;;;;;;;;;;5010775;28;20022;-68
2021/06/05 09:58:10;;;;;;;10.38;6.03;;;;;;;;;;5010793;28;20041;-70
2021/06/05 10:00:38;;;;;;;13.80;4.60;;;;;;;;;;5010665;28;20431;-71
2021/06/05 10:03:23;;;;;;;8.60;4.68;;;;;;;;;;5010751;28;20021;-68
2021/06/05 10:05:50;;;;;;;9.90;5.45;;;;;;;;;;5010491;28;20065;-73
2021/06/05 10:08:34;;;;;;;7.28;5.60;;;;;;;;;;5010487;28;20098;-67
2021/06/05 10:11:00;;;;;;;9.52;4.82;;;;;;;;;;5010404;28;20034;-73
2021/06/05 10:13:30;;;;;;;6.32;5.07;;;;;;;;;;5010641;28;20076;-68
2021/06/05 10:15:59;;;;;;;7.77;4.93;;;;;;;;;;5015961;28;20041;-69
2021/06/05 10:18:29;;;;;;;10.63;5.30;;;;;;;;;;5092475;28;20016;-73
2021/06/05 10:20:55;;;;;;;9.20;5.18;;;;;;;;;;5091006;28;20060;-68
2021/06/05 10:23:26;;;;;;;10.80;5.80;;;;;;;;;;5092208;28;20059;-68
2021/06/05 10:25:55;;;;;;;8.13;4.78;;;;;;;;;;5092559;28;20077;-73
2021/06/05 10:28:23;;;;;;;8.38;4.72;;;;;;;;;;5092667;28;20051;-68
2021/06/05 10:30:52;;;;;;;6.47;4.60;;;;;;;;;;5092783;28;20058;-73
2021/06/05 10:33:32;;;;;;;6.00;4.82;;;;;;;;;;5092227;28;20103;-73
2021/06/05 10:35:59;;;;;;;8.43;4.93;;;;;;;;;;5092037;28;20028;-73
2021/06/05 10:38:25;;;;;;;8.00;5.30;;;;;;;;;;5092191;28;20024;-72
2021/06/05 10:40:52;;;;;;;8.18;4.90;;;;;;;;;;5092290;28;20115;-69
2021/06/05 10:43:18;;;;;;;8.23;5.25;;;;;;;;;;5091948;28;20070;-71
2021/06/05 10:45:46;;;;;;;8.85;5.18;;;;;;;;;;5093732;28;20112;-68
2021/06/05 10:48:18;;;;;;;7.22;5.15;;;;;;;;;;5096329;28;20078;-73
2021/06/05 10:50:46;;;;;;;10.52;5.35;;;;;;;;;;5095932;28;20020;-70
2021/06/05 10:53:38;;;;;;;5.38;4.88;;;;;;;;;;5096329;28;20020;-72
2021/06/05 10:56:15;;;;;;;6.55;4.97;;;;;;;;;;5092529;28;20077;-68
2021/06/05 10:58:44;;;;;;;10.55;5.47;;;;;;;;;;5096434;28;20028;-69
2021/06/05 11:01:12;;;;;;;9.48;5.28;;;;;;;;;;5096121;28;20020;-68
2021/06/05 11:03:38;;;;;;;6.22;4.47;;;;;;;;;;5095996;28;20020;-70
2021/06/05 11:06:12;;;;;;;7.32;5.68;;;;;;;;;;5095528;28;20047;-70
2021/06/05 11:08:38;;;;;;;22.48;8.18;;;;;;;;;;5095957;28;20210;-71
2021/06/05 11:11:07;;;;;;;11.23;5.57;;;;;;;;;;5095760;28;20019;-71
2021/06/05 11:13:36;;;;;;;8.27;5.75;;;;;;;;;;5095794;28;20028;-69
2021/06/05 11:16:13;;;;;;;5.40;4.38;;;;;;;;;;5095907;28;20024;-69
2021/06/05 11:18:42;;;;;;;6.43;5.03;;;;;;;;;;5094383;28;20027;-69
2021/06/05 11:21:23;;;;;;;9.85;4.43;;;;;;;;;;5095712;28;20165;-68
2021/06/05 11:23:58;;;;;;;7.05;5.38;;;;;;;;;;5095998;28;20028;-68
2021/06/05 11:26:39;;;;;;;7.85;5.38;;;;;;;;;;5095995;28;20039;-68
2021/06/05 11:29:06;;;;;;;;;;;;;;;;;;5096273;28;20411;-68
2021/06/05 11:31:35;;;;;;;6.85;4.50;;;;;;;;;;5095407;28;19909;-68
2021/06/05 11:34:01;;;;;;;9.52;4.80;;;;;;;;;;5095438;28;20027;-69
2021/06/05 11:36:30;;;;;;;10.48;5.63;;;;;;;;;;5094193;28;20494;-67
2021/06/05 11:38:56;;;;;;;8.23;5.18;;;;;;;;;;5095301;28;20069;-68
2021/06/05 11:41:43;;;;;;;6.53;4.82;;;;;;;;;;5095118;28;20015;-70
2021/06/05 11:44:24;;;;;;;6.10;4.57;;;;;;;;;;5095386;28;20111;-68
2021/06/05 11:46:50;;;;;;;;;;;;;;;;;;5095589;28;20119;-72
2021/06/05 11:49:35;;;;;;;6.95;4.68;;;;;;;;;;5095234;28;19940;-68
2021/06/05 11:52:33;;;;;;;8.38;4.82;;;;;;;;;;5095000;28;20028;-70
2021/06/05 11:55:11;;;;;;;10.98;5.07;;;;;;;;;;5012914;28;20037;-70
2021/06/05 11:57:38;;;;;;;6.95;4.93;;;;;;;;;;4984516;28;20473;-71
2021/06/05 12:00:08;;;;;;;7.95;4.40;;;;;;;;;;5012780;28;20042;-69
2021/06/05 12:02:37;;;;;;;6.05;4.63;;;717.00;844.80;;;;;;5012671;28;20515;-67
2021/06/05 12:05:12;;;;;;;6.97;4.40;;;;;;;;;;5012584;28;20125;-68
2021/06/05 12:07:42;;;;;;;6.20;4.63;;;;;;;;;;5012665;28;20108;-69
2021/06/05 12:10:10;;;;;;;9.15;5.45;;;;;;;;;;5005990;28;20022;-73
2021/06/05 12:12:45;;;;;;;5.53;5.03;;;716.90;844.80;;;;;;5006091;28;20049;-70
2021/06/05 12:15:18;;;;;;;6.82;5.30;;;716.90;870.40;;;;;;5006164;28;20508;-71
2021/06/05 12:17:45;;;;;;;6.95;4.97;;;716.90;844.80;;;;;;5006335;28;20030;-70
2021/06/05 12:20:31;;;;;;;6.38;4.88;;;717.00;844.80;;;;;;4998718;28;20129;-68
2021/06/05 12:23:12;;;;;;;5.78;4.53;;;717.10;844.80;;;;;;4998594;28;20109;-67
2021/06/05 12:25:43;;;;;;;7.47;5.55;;;716.90;870.40;;;;;;5012595;28;20496;-71
2021/06/05 12:28:14;;;;;;;7.75;4.88;;;717.10;819.20;;;;;;5012448;28;20064;-68
2021/06/05 12:30:43;;;;;;;8.40;5.05;;;717.10;844.80;;;;;;5019402;28;20446;-68
2021/06/05 12:33:11;;;;;;;8.82;4.72;;;717.00;870.40;;;;;;5083547;28;20352;-67
2021/06/05 12:35:45;;;;;;;6.97;5.65;;;716.90;870.40;;;;;;5094276;28;20024;-69
2021/06/05 12:38:27;;;;;;;8.20;4.32;;;716.90;844.80;;;;;;5094378;28;20069;-67
2021/06/05 12:40:58;;;;;;;8.27;4.70;;;717.10;844.80;;;;;;5092846;28;20028;-68
2021/06/05 12:43:30;;;;;;;8.57;4.72;;;717.10;844.80;;;;;;5093754;28;20056;-71
2021/06/05 12:46:01;;;;;;;11.18;4.65;;;717.20;819.20;;;;;;5094118;28;20035;-73
2021/06/05 12:48:28;;;;;;;5.28;4.10;;;717.20;844.80;;;;;;5092704;28;20020;-73
2021/06/05 12:50:56;;;;;;;8.63;5.32;;;717.10;844.80;;;;;;5093959;28;20024;-69
2021/06/05 12:53:25;;;;;;;7.30;5.00;;;717.40;844.80;;;;;;5094030;28;20103;-74
2021/06/05 12:56:00;;;;;;;7.30;4.80;;;717.10;870.40;;;;;;5094040;28;20066;-73
2021/06/05 12:58:43;;;;;;;9.07;4.85;;;717.00;844.80;;;;;;5093679;28;20378;-69
2021/06/05 13:01:36;;;;;;;6.15;4.60;;;717.10;844.80;;;;;;5093945;28;20061;-68
2021/06/05 13:04:05;;;;;;;5.68;4.85;;;716.90;844.80;;;;;;5093547;28;20077;-72
2021/06/05 13:06:53;;;;;;;8.05;4.75;;;716.90;844.80;;;;;;5093500;28;20075;-74
2021/06/05 13:09:34;;;;;;;8.15;4.95;;;716.90;870.40;;;;;;5092872;28;20513;-73
2021/06/05 13:12:25;;;;;;;5.63;5.05;;;716.80;870.40;;;;;;5093310;28;20028;-73
2021/06/05 13:15:08;;;;;;;9.35;4.80;;;716.90;870.40;;;;;;5092525;28;20040;-73
2021/06/05 13:17:38;;;;;;;6.43;4.00;;;716.80;870.40;;;;;;5091947;28;20032;-72
2021/06/05 13:20:08;;;;;;;6.63;4.35;;;;;;;;;;5093380;28;20099;-74
2021/06/05 13:22:35;;;;;;;12.30;6.45;;;;;;;;;;5093582;28;20024;-71
2021/06/05 13:25:19;;;;;;;5.82;4.60;;;717.20;896.00;;;;;;5093163;28;20042;-73
2021/06/05 13:28:00;;;;;;;7.28;4.10;;;717.10;819.20;;;;;;5093240;28;20016;-69
2021/06/05 13:30:34;;;;;;;5.22;4.15;;;717.00;819.20;;;;;;5072734;28;20024;-68
2021/06/05 13:33:01;;;;;;;4.63;3.90;;;716.90;819.20;;;;;;5055427;28;20025;-68
2021/06/05 13:35:43;;;;;;;10.57;4.72;;;716.90;844.80;;;;;;5080655;28;20115;-71
2021/06/05 13:38:24;;;;;;;9.30;4.40;;;717.10;844.80;;;;;;5070645;28;20099;-72
2021/06/05 13:40:56;;;;;;;4.70;4.18;;;717.10;819.20;;;;;;5071530;28;20056;-69
2021/06/05 13:43:21;;;;;;;10.45;5.93;;;717.10;819.20;;;;;;5051943;28;20075;-70
2021/06/05 13:45:47;;;;;;;22.48;12.73;;;717.10;844.80;;;;;;5055829;28;20060;-72
2021/06/05 13:48:16;;;;;;;20.38;11.15;;;717.00;819.20;;;;;;5052656;28;20541;-68
2021/06/05 13:50:42;;;;;;;36.63;19.73;;;;;;;;;;5055014;28;20539;-72
2021/06/05 13:53:11;;;;;;;42.70;22.98;;;;;;;;;;5054274;28;20360;-72
2021/06/05 13:55:40;;;;;;;49.40;23.63;;;;;;;;;;5053168;28;20052;-71